Detall de PIREP

Printer-friendly versionPDF version

[2013/01/15 08:39:00]
Flight IATA:CT1005
Pilot Number:011
Company ICAO:CAT
Aircraft Type:F28/A
PAX:85
Departing Airport: LOWI
Destination Airport: LIMJ
Alternate Airport:LIMC
Online: VATSIM
Route:RTT Y703 INN UM726 BZO UM984 LUSIL
Flight Level:F330
No Slew and time accel
No pause
Crash detect
Detect pilot in Cockpit between each 30 and 45 minutes
08:39 Zero fuel Weight: 59656 Lbs, Fuel Weight: 9766 Lbs
08:39 VATSIM:LOWI 150820Z 05004KT 5000 -SHSN FEW008 SCT022 BKN031 M02/M03 Q1005 R08/29//71 TEMPO 3000
08:39 VATSIM:LIMJ 150820Z 04006KT 9999 BKN029 SCT070 05/01 Q1007
08:42 Parking Brakes off
08:54 Take-off
08:54 Take off Weight: 68946 Lbs
08:54 Wind: 050º @ 004 Knots Heading: 080º
08:54 POS N47º 15´ 39´´ E011º 21´ 03´´
08:54 Flaps:3 at 141 Knots
08:54 Gear Up: 142 Knots
08:55 Flaps:2 at 146 Knots
08:55 Flaps:1 at 150 Knots
08:55 Flaps:0 at 161 Knots
09:09 Wind:051º@016 Knots Heading: 187º Ground Speed: 331 Knots Altitude 30000 ft
09:11 TOC
09:11 Fuel Weight: 7104 Lb
09:21 TOD
09:21 Fuel Weight: 6456 Lb
09:24 Wind:164º@013 Knots Heading: 180º Ground Speed: 370 Knots Altitude 27667 ft
09:39 Wind:138º@004 Knots Heading: 209º Ground Speed: 277 Knots Altitude 9812 ft
09:49 Flaps:1 at 226 Knots
09:49 Flaps:2 at 210 Knots
09:50 Flaps:3 at 194 Knots
09:51 Flaps:4 at 170 Knots
09:51 Gear Down: 169 Knots
09:51 Flaps:5 at 151 Knots
09:54 Wind:009º@003 Knots Heading: 288º Ground Speed: 135 Knots Altitude 1325 ft
09:56 TouchDown:Rate -184 ft/min Speed: 107 Knots
09:56 Flaps:0 at 44 Knots
09:56 VATSIM:LIMJ 150920Z VRB02KT 8000 -TSRA FEW023CB BKN028 06/02 Q1007
09:56 Land
09:56 Wind:009º@003 Knots
09:56 Heading: 282º
09:56 Flight Duration: 01:02
09:56 Landing Weight: 64591 Lbs
09:56 POS N44º 24´ 43´´ E008º 50´ 31´´
09:58 Parking brakes on
09:58 Block to Block Duration: 01:17
09:58 Final Fuel: 4841 Lbls
09:58 Spent Fuel: 4925 Lbls
09:58 Flight Length: 140 NM
09:58 TOD Land Length: 76 NM

Exportar CSV

Powered by Drupal - Modified by Danger4k